IBE829 LEAM-LPPS
Flight info
| Callsign | IBE829 |
|---|---|
| Flight time | 2h 2m |
| Altitude | 35000 |
| Route | KUNEN L112 MGA N851 VJF L82 TAVSI T100 ORTOP/N0455F360 DCT BAROK/N0456F350 DCT SUBAL DCT GIKAR DCT LIDRO |
| Aircraft | A320/M-SDE3FGHIRWY/LB1 |
Departure
| Time | 2026-04-23 00:43 |
|---|---|
| Airport | Almería Airport (LEAM) |
Arrival
| Time | 2026-04-23 02:45 |
|---|---|
| Airport | Porto Santo Airport (LPPS) |
| Time | Latitude | Longitude | Altitude | Speed | Heading |
|---|---|---|---|---|---|
| 2026-04-23 00:24 | 36.84674 | -2.37164 | 56 ft | 0 kts | 227° |
| 2026-04-23 00:33 | 36.84684 | -2.37150 | 49 ft | 4 kts | 153° |
| 2026-04-23 00:33 | 36.84695 | -2.37170 | 49 ft | 2 kts | 105° |
| 2026-04-23 00:33 | 36.84688 | -2.37171 | 50 ft | 4 kts | 175° |
| 2026-04-23 00:33 | 36.84666 | -2.37186 | 48 ft | 4 kts | 210° |
| 2026-04-23 00:34 | 36.84648 | -2.37182 | 55 ft | 3 kts | 343° |
| 2026-04-23 00:34 | 36.84626 | -2.37172 | 53 ft | 4 kts | 324° |
| 2026-04-23 00:34 | 36.84613 | -2.37149 | 50 ft | 4 kts | 255° |
| 2026-04-23 00:34 | 36.84619 | -2.37119 | 52 ft | 4 kts | 259° |
| 2026-04-23 00:35 | 36.84621 | -2.37107 | 55 ft | 1 kts | 252° |
| 2026-04-23 00:36 | 36.84621 | -2.37106 | 55 ft | 0 kts | 252° |
| 2026-04-23 00:37 | 36.84620 | -2.37110 | 50 ft | 3 kts | 252° |
| 2026-04-23 00:37 | 36.84611 | -2.37146 | 56 ft | 5 kts | 252° |
| 2026-04-23 00:38 | 36.84600 | -2.37191 | 55 ft | 6 kts | 252° |
| 2026-04-23 00:38 | 36.84583 | -2.37258 | 54 ft | 10 kts | 252° |
| 2026-04-23 00:38 | 36.84564 | -2.37339 | 52 ft | 10 kts | 253° |
| 2026-04-23 00:38 | 36.84510 | -2.37376 | 51 ft | 13 kts | 188° |
| 2026-04-23 00:39 | 36.84451 | -2.37487 | 48 ft | 17 kts | 256° |
| 2026-04-23 00:39 | 36.84419 | -2.37622 | 48 ft | 16 kts | 253° |
| 2026-04-23 00:39 | 36.84386 | -2.37756 | 48 ft | 17 kts | 253° |
| 2026-04-23 00:39 | 36.84352 | -2.37893 | 45 ft | 16 kts | 253° |
| 2026-04-23 00:40 | 36.84320 | -2.38024 | 41 ft | 15 kts | 253° |
| 2026-04-23 00:40 | 36.84289 | -2.38149 | 40 ft | 15 kts | 253° |
| 2026-04-23 00:40 | 36.84254 | -2.38296 | 40 ft | 21 kts | 252° |
| 2026-04-23 00:40 | 36.84208 | -2.38477 | 37 ft | 23 kts | 253° |
| 2026-04-23 00:41 | 36.84161 | -2.38673 | 34 ft | 20 kts | 252° |
| 2026-04-23 00:41 | 36.84088 | -2.38781 | 33 ft | 15 kts | 182° |
| 2026-04-23 00:41 | 36.84014 | -2.38713 | 34 ft | 13 kts | 112° |
| 2026-04-23 00:41 | 36.84004 | -2.38609 | 34 ft | 12 kts | 81° |
| 2026-04-23 00:42 | 36.84028 | -2.38501 | 35 ft | 16 kts | 74° |
| 2026-04-23 00:42 | 36.84125 | -2.38108 | 41 ft | 81 kts | 72° |
| 2026-04-23 00:42 | 36.84352 | -2.37197 | 49 ft | 136 kts | 72° |
| 2026-04-23 00:42 | 36.84673 | -2.35902 | 210 ft | 169 kts | 72° |
| 2026-04-23 00:43 | 36.85033 | -2.34433 | 872 ft | 180 kts | 73° |
| 2026-04-23 00:43 | 36.85401 | -2.32921 | 1764 ft | 188 kts | 72° |
| 2026-04-23 00:43 | 36.85807 | -2.31268 | 2250 ft | 212 kts | 72° |
| 2026-04-23 00:43 | 36.86256 | -2.29447 | 2643 ft | 232 kts | 73° |
| 2026-04-23 00:44 | 36.86738 | -2.27482 | 3351 ft | 239 kts | 73° |
| 2026-04-23 00:44 | 36.87170 | -2.25456 | 4099 ft | 243 kts | 85° |
| 2026-04-23 00:44 | 36.86822 | -2.23420 | 4848 ft | 244 kts | 123° |
| 2026-04-23 00:44 | 36.85554 | -2.22026 | 5591 ft | 248 kts | 153° |
| 2026-04-23 00:45 | 36.83939 | -2.21258 | 6331 ft | 251 kts | 163° |
| 2026-04-23 00:45 | 36.82232 | -2.20720 | 7060 ft | 254 kts | 166° |
| 2026-04-23 00:45 | 36.80490 | -2.20221 | 7780 ft | 258 kts | 167° |
| 2026-04-23 00:45 | 36.78735 | -2.19695 | 8517 ft | 261 kts | 168° |
| 2026-04-23 00:46 | 36.76932 | -2.19608 | 9223 ft | 263 kts | 195° |
| 2026-04-23 00:46 | 36.75316 | -2.20635 | 9954 ft | 264 kts | 224° |
| 2026-04-23 00:46 | 36.74318 | -2.22523 | 10661 ft | 265 kts | 251° |
| 2026-04-23 00:46 | 36.73888 | -2.24292 | 11269 ft | 264 kts | 253° |
| 2026-04-23 00:47 | 36.73360 | -2.26479 | 12041 ft | 264 kts | 252° |
| 2026-04-23 00:47 | 36.72821 | -2.28666 | 12821 ft | 263 kts | 252° |
| 2026-04-23 00:47 | 36.72279 | -2.30845 | 13600 ft | 262 kts | 252° |
| 2026-04-23 00:47 | 36.71777 | -2.33032 | 14275 ft | 263 kts | 259° |
| 2026-04-23 00:48 | 36.71694 | -2.35330 | 14799 ft | 272 kts | 274° |
| 2026-04-23 00:48 | 36.72135 | -2.37693 | 14933 ft | 295 kts | 284° |
| 2026-04-23 00:48 | 36.72765 | -2.40259 | 15052 ft | 316 kts | 284° |
| 2026-04-23 00:48 | 36.73411 | -2.42919 | 15179 ft | 334 kts | 284° |
| 2026-04-23 00:49 | 36.74106 | -2.45804 | 15305 ft | 352 kts | 284° |
| 2026-04-23 00:49 | 36.74823 | -2.48792 | 15502 ft | 366 kts | 284° |
| 2026-04-23 00:49 | 36.75558 | -2.51863 | 15946 ft | 372 kts | 284° |
| 2026-04-23 00:49 | 36.76300 | -2.54972 | 16440 ft | 376 kts | 284° |
| 2026-04-23 00:50 | 36.77047 | -2.58116 | 16936 ft | 380 kts | 284° |
| 2026-04-23 00:50 | 36.77797 | -2.61293 | 17450 ft | 384 kts | 285° |
| 2026-04-23 00:50 | 36.78555 | -2.64501 | 17925 ft | 388 kts | 285° |
| 2026-04-23 00:50 | 36.79322 | -2.67745 | 18385 ft | 391 kts | 285° |
| 2026-04-23 00:51 | 36.80093 | -2.71010 | 18821 ft | 394 kts | 285° |
| 2026-04-23 00:51 | 36.80860 | -2.74261 | 19281 ft | 397 kts | 285° |
| 2026-04-23 00:51 | 36.81642 | -2.77568 | 19745 ft | 399 kts | 285° |
| 2026-04-23 00:51 | 36.82429 | -2.80894 | 20210 ft | 401 kts | 285° |
| 2026-04-23 00:52 | 36.83030 | -2.84288 | 20655 ft | 402 kts | 276° |
| 2026-04-23 00:52 | 36.83156 | -2.87772 | 21107 ft | 403 kts | 268° |
| 2026-04-23 00:52 | 36.83115 | -2.91278 | 21547 ft | 405 kts | 268° |
| 2026-04-23 00:52 | 36.83082 | -2.94797 | 21990 ft | 406 kts | 268° |
| 2026-04-23 00:53 | 36.83051 | -2.98331 | 22425 ft | 408 kts | 268° |
| 2026-04-23 00:53 | 36.83022 | -3.01878 | 22850 ft | 410 kts | 268° |
| 2026-04-23 00:53 | 36.82993 | -3.05453 | 23275 ft | 412 kts | 268° |
| 2026-04-23 00:53 | 36.82962 | -3.09035 | 23661 ft | 414 kts | 268° |
| 2026-04-23 00:54 | 36.82929 | -3.12637 | 23984 ft | 416 kts | 268° |
| 2026-04-23 00:54 | 36.82892 | -3.16251 | 24314 ft | 418 kts | 268° |
| 2026-04-23 00:54 | 36.82852 | -3.19884 | 24644 ft | 420 kts | 268° |
| 2026-04-23 00:54 | 36.82810 | -3.23546 | 24948 ft | 422 kts | 268° |
| 2026-04-23 00:55 | 36.82768 | -3.27217 | 25287 ft | 424 kts | 269° |
| 2026-04-23 00:55 | 36.82726 | -3.30905 | 25598 ft | 426 kts | 268° |
| 2026-04-23 00:55 | 36.82682 | -3.34615 | 25928 ft | 428 kts | 268° |
| 2026-04-23 00:55 | 36.82637 | -3.38331 | 26243 ft | 430 kts | 268° |
| 2026-04-23 00:56 | 36.82590 | -3.42060 | 26536 ft | 431 kts | 268° |
| 2026-04-23 00:56 | 36.82543 | -3.45810 | 26832 ft | 433 kts | 268° |
| 2026-04-23 00:56 | 36.82496 | -3.49593 | 27127 ft | 435 kts | 268° |
| 2026-04-23 00:56 | 36.82449 | -3.53367 | 27396 ft | 437 kts | 268° |
| 2026-04-23 00:57 | 36.82400 | -3.57178 | 27676 ft | 439 kts | 268° |
| 2026-04-23 00:57 | 36.82348 | -3.60992 | 27953 ft | 441 kts | 268° |
| 2026-04-23 00:57 | 36.82293 | -3.64825 | 28237 ft | 442 kts | 268° |
| 2026-04-23 00:57 | 36.82235 | -3.68619 | 28597 ft | 442 kts | 268° |
| 2026-04-23 00:58 | 36.82174 | -3.72441 | 28997 ft | 441 kts | 268° |
| 2026-04-23 00:58 | 36.82114 | -3.76260 | 29372 ft | 440 kts | 268° |
| 2026-04-23 00:58 | 36.82067 | -3.80075 | 29752 ft | 439 kts | 268° |
| 2026-04-23 00:58 | 36.82034 | -3.83885 | 30139 ft | 438 kts | 268° |
| 2026-04-23 00:59 | 36.82006 | -3.87677 | 30460 ft | 437 kts | 269° |
| 2026-04-23 00:59 | 36.81977 | -3.91470 | 30776 ft | 436 kts | 269° |
| 2026-04-23 00:59 | 36.81946 | -3.95250 | 31087 ft | 435 kts | 269° |
| 2026-04-23 00:59 | 36.81912 | -3.99019 | 31411 ft | 434 kts | 268° |
| 2026-04-23 01:00 | 36.81873 | -4.02785 | 31740 ft | 433 kts | 268° |
| 2026-04-23 01:00 | 36.81829 | -4.06551 | 32073 ft | 432 kts | 268° |
| 2026-04-23 01:00 | 36.81784 | -4.10302 | 32382 ft | 431 kts | 268° |
| 2026-04-23 01:00 | 36.81739 | -4.14039 | 32718 ft | 430 kts | 268° |
| 2026-04-23 01:01 | 36.81692 | -4.17762 | 33042 ft | 429 kts | 268° |
| 2026-04-23 01:01 | 36.81644 | -4.21489 | 33358 ft | 428 kts | 268° |
| 2026-04-23 01:01 | 36.81594 | -4.25194 | 33682 ft | 427 kts | 268° |
| 2026-04-23 01:01 | 36.81543 | -4.28899 | 33999 ft | 426 kts | 268° |
| 2026-04-23 01:02 | 36.81493 | -4.32598 | 34278 ft | 425 kts | 268° |
| 2026-04-23 01:02 | 36.81280 | -4.36256 | 34553 ft | 423 kts | 260° |
| 2026-04-23 01:02 | 36.80604 | -4.39816 | 34822 ft | 421 kts | 251° |
| 2026-04-23 01:02 | 36.79626 | -4.43213 | 34974 ft | 422 kts | 250° |
| 2026-04-23 01:03 | 36.78617 | -4.46664 | 35010 ft | 424 kts | 250° |
| 2026-04-23 01:03 | 36.76592 | -4.53577 | 34995 ft | 424 kts | 250° |
| 2026-04-23 01:04 | 36.74573 | -4.60488 | 35007 ft | 424 kts | 250° |
| 2026-04-23 01:04 | 36.71537 | -4.70827 | 35008 ft | 423 kts | 250° |
| 2026-04-23 01:05 | 36.69510 | -4.77714 | 34995 ft | 423 kts | 249° |
| 2026-04-23 01:05 | 36.67487 | -4.84583 | 35009 ft | 423 kts | 249° |
| 2026-04-23 01:06 | 36.65462 | -4.91449 | 35007 ft | 422 kts | 250° |
| 2026-04-23 01:06 | 36.63436 | -4.98312 | 35006 ft | 422 kts | 249° |
| 2026-04-23 01:07 | 36.61398 | -5.05160 | 35011 ft | 422 kts | 249° |
| 2026-04-23 01:07 | 36.59354 | -5.12006 | 35022 ft | 421 kts | 249° |
| 2026-04-23 01:08 | 36.57316 | -5.18838 | 35011 ft | 421 kts | 249° |
| 2026-04-23 01:08 | 36.55286 | -5.25626 | 35018 ft | 421 kts | 249° |
| 2026-04-23 01:09 | 36.53236 | -5.32459 | 35015 ft | 421 kts | 249° |
| 2026-04-23 01:09 | 36.51184 | -5.39265 | 35015 ft | 420 kts | 249° |
| 2026-04-23 01:10 | 36.48552 | -5.45721 | 35019 ft | 419 kts | 239° |
| 2026-04-23 01:10 | 36.45601 | -5.51967 | 35006 ft | 419 kts | 239° |
| 2026-04-23 01:11 | 36.42658 | -5.58207 | 34997 ft | 419 kts | 239° |
| 2026-04-23 01:11 | 36.39709 | -5.64435 | 34995 ft | 418 kts | 239° |
| 2026-04-23 01:12 | 36.36755 | -5.70655 | 34992 ft | 418 kts | 239° |
| 2026-04-23 01:12 | 36.33817 | -5.76827 | 34990 ft | 418 kts | 239° |
| 2026-04-23 01:13 | 36.30874 | -5.83031 | 34992 ft | 418 kts | 239° |
| 2026-04-23 01:13 | 36.27911 | -5.89240 | 34987 ft | 418 kts | 239° |
| 2026-04-23 01:14 | 36.24952 | -5.95435 | 34988 ft | 418 kts | 239° |
| 2026-04-23 01:14 | 36.21627 | -6.01327 | 34989 ft | 418 kts | 232° |
| 2026-04-23 01:15 | 36.18097 | -6.07052 | 34992 ft | 418 kts | 232° |
| 2026-04-23 01:15 | 36.14582 | -6.12776 | 34995 ft | 417 kts | 233° |
| 2026-04-23 01:16 | 36.11065 | -6.18493 | 34994 ft | 417 kts | 232° |
| 2026-04-23 01:16 | 36.07554 | -6.24188 | 34997 ft | 417 kts | 232° |
| 2026-04-23 01:17 | 36.04057 | -6.29859 | 34999 ft | 416 kts | 232° |
| 2026-04-23 01:17 | 36.00542 | -6.35540 | 34996 ft | 416 kts | 232° |
| 2026-04-23 01:18 | 35.97018 | -6.41216 | 34997 ft | 416 kts | 232° |
| 2026-04-23 01:18 | 35.93911 | -6.47213 | 34989 ft | 416 kts | 246° |
| 2026-04-23 01:19 | 35.92596 | -6.54170 | 34989 ft | 421 kts | 265° |
| 2026-04-23 01:19 | 35.92454 | -6.60169 | 34989 ft | 422 kts | 265° |
| 2026-04-23 01:20 | 35.92286 | -6.67409 | 34991 ft | 422 kts | 266° |
| 2026-04-23 01:20 | 35.92941 | -6.74646 | 34995 ft | 427 kts | 277° |
| 2026-04-23 01:21 | 35.94067 | -6.81840 | 35003 ft | 428 kts | 277° |
| 2026-04-23 01:21 | 35.95184 | -6.89055 | 35006 ft | 427 kts | 277° |
| 2026-04-23 01:22 | 35.96289 | -6.96248 | 35008 ft | 428 kts | 277° |
| 2026-04-23 01:22 | 35.97396 | -7.03471 | 35015 ft | 427 kts | 277° |
| 2026-04-23 01:23 | 35.98497 | -7.10673 | 35017 ft | 427 kts | 276° |
| 2026-04-23 01:23 | 35.99588 | -7.17883 | 35012 ft | 427 kts | 276° |
| 2026-04-23 01:24 | 36.00674 | -7.25084 | 35019 ft | 426 kts | 276° |
| 2026-04-23 01:24 | 36.01757 | -7.32291 | 35018 ft | 426 kts | 276° |
| 2026-04-23 01:25 | 36.02635 | -7.39506 | 35236 ft | 422 kts | 267° |
| 2026-04-23 01:25 | 36.02616 | -7.43121 | 35502 ft | 419 kts | 265° |
| 2026-04-23 01:25 | 36.02573 | -7.46674 | 35742 ft | 418 kts | 265° |
| 2026-04-23 01:26 | 36.02528 | -7.50262 | 35973 ft | 417 kts | 265° |
| 2026-04-23 01:26 | 36.02481 | -7.53890 | 36198 ft | 417 kts | 265° |
| 2026-04-23 01:26 | 36.02434 | -7.57417 | 36417 ft | 416 kts | 265° |
| 2026-04-23 01:26 | 36.02386 | -7.60985 | 36630 ft | 415 kts | 265° |
| 2026-04-23 01:27 | 36.02339 | -7.64548 | 36839 ft | 414 kts | 265° |
| 2026-04-23 01:27 | 36.02288 | -7.68103 | 37033 ft | 414 kts | 265° |
| 2026-04-23 01:27 | 36.02234 | -7.71656 | 37235 ft | 413 kts | 265° |
| 2026-04-23 01:27 | 36.02180 | -7.75201 | 37426 ft | 412 kts | 265° |
| 2026-04-23 01:28 | 36.02126 | -7.78742 | 37627 ft | 412 kts | 265° |
| 2026-04-23 01:28 | 36.02072 | -7.82281 | 37793 ft | 411 kts | 265° |
| 2026-04-23 01:28 | 36.02017 | -7.85808 | 37978 ft | 411 kts | 265° |
| 2026-04-23 01:28 | 36.01958 | -7.89344 | 38014 ft | 411 kts | 265° |
| 2026-04-23 01:29 | 36.01846 | -7.96400 | 38013 ft | 410 kts | 265° |
| 2026-04-23 01:29 | 36.01730 | -8.03447 | 38018 ft | 410 kts | 265° |
| 2026-04-23 01:30 | 36.01608 | -8.10448 | 38016 ft | 410 kts | 265° |
| 2026-04-23 01:30 | 36.01483 | -8.17486 | 38017 ft | 410 kts | 264° |
| 2026-04-23 01:31 | 36.01351 | -8.24529 | 38024 ft | 410 kts | 264° |
| 2026-04-23 01:31 | 36.01211 | -8.31574 | 38029 ft | 410 kts | 264° |
| 2026-04-23 01:32 | 36.01074 | -8.38620 | 38035 ft | 410 kts | 264° |
| 2026-04-23 01:32 | 36.00932 | -8.45659 | 38034 ft | 410 kts | 264° |
| 2026-04-23 01:33 | 36.00782 | -8.52697 | 38035 ft | 410 kts | 264° |
| 2026-04-23 01:33 | 36.00633 | -8.59731 | 38033 ft | 410 kts | 264° |
| 2026-04-23 01:34 | 36.00481 | -8.66721 | 38034 ft | 409 kts | 264° |
| 2026-04-23 01:34 | 36.00325 | -8.73754 | 38033 ft | 409 kts | 264° |
| 2026-04-23 01:35 | 36.00156 | -8.80785 | 38034 ft | 409 kts | 264° |
| 2026-04-23 01:35 | 35.99985 | -8.87803 | 38033 ft | 409 kts | 264° |
| 2026-04-23 01:36 | 35.99813 | -8.94828 | 38035 ft | 409 kts | 264° |
| 2026-04-23 01:36 | 35.99635 | -9.01854 | 38038 ft | 409 kts | 264° |
| 2026-04-23 01:37 | 35.99452 | -9.08828 | 38036 ft | 409 kts | 264° |
| 2026-04-23 01:37 | 35.99272 | -9.15841 | 38039 ft | 408 kts | 264° |
| 2026-04-23 01:38 | 35.99094 | -9.22848 | 38036 ft | 408 kts | 263° |
| 2026-04-23 01:38 | 35.98901 | -9.29848 | 38036 ft | 408 kts | 263° |
| 2026-04-23 01:39 | 35.98695 | -9.36847 | 38034 ft | 408 kts | 263° |
| 2026-04-23 01:39 | 35.98494 | -9.43796 | 38037 ft | 408 kts | 263° |
| 2026-04-23 01:40 | 35.98294 | -9.50795 | 38036 ft | 407 kts | 263° |
| 2026-04-23 01:40 | 35.98089 | -9.57783 | 38035 ft | 407 kts | 263° |
| 2026-04-23 01:41 | 35.97874 | -9.64779 | 38037 ft | 407 kts | 263° |
| 2026-04-23 01:41 | 35.97661 | -9.71771 | 38039 ft | 407 kts | 263° |
| 2026-04-23 01:42 | 35.97442 | -9.78750 | 38040 ft | 407 kts | 263° |
| 2026-04-23 01:42 | 35.97214 | -9.85680 | 38040 ft | 407 kts | 263° |
| 2026-04-23 01:43 | 35.96983 | -9.92658 | 38042 ft | 407 kts | 263° |
| 2026-04-23 01:43 | 35.96754 | -9.99656 | 37292 ft | 408 kts | 263° |
| 2026-04-23 01:44 | 35.96513 | -10.03135 | 36591 ft | 405 kts | 256° |
| 2026-04-23 01:44 | 35.95947 | -10.06530 | 35892 ft | 405 kts | 253° |
| 2026-04-23 01:44 | 35.95348 | -10.09932 | 35268 ft | 405 kts | 253° |
| 2026-04-23 01:44 | 35.94748 | -10.13338 | 35051 ft | 407 kts | 253° |
| 2026-04-23 01:45 | 35.93555 | -10.20175 | 35031 ft | 409 kts | 253° |
| 2026-04-23 01:45 | 35.92357 | -10.27030 | 35031 ft | 409 kts | 253° |
| 2026-04-23 01:46 | 35.91156 | -10.33857 | 35026 ft | 409 kts | 253° |
| 2026-04-23 01:46 | 35.89945 | -10.40758 | 35031 ft | 409 kts | 253° |
| 2026-04-23 01:47 | 35.88745 | -10.47560 | 35031 ft | 409 kts | 253° |
| 2026-04-23 01:47 | 35.87526 | -10.54412 | 35035 ft | 408 kts | 253° |
| 2026-04-23 01:48 | 35.86306 | -10.61250 | 35034 ft | 408 kts | 253° |
| 2026-04-23 01:48 | 35.85083 | -10.68075 | 35031 ft | 408 kts | 253° |
| 2026-04-23 01:49 | 35.83856 | -10.74920 | 35034 ft | 408 kts | 253° |
| 2026-04-23 01:49 | 35.82630 | -10.81748 | 35032 ft | 408 kts | 253° |
| 2026-04-23 01:50 | 35.81403 | -10.88576 | 35031 ft | 408 kts | 253° |
| 2026-04-23 01:50 | 35.80164 | -10.95406 | 35028 ft | 408 kts | 253° |
| 2026-04-23 01:51 | 35.78914 | -11.02232 | 35034 ft | 408 kts | 252° |
| 2026-04-23 01:51 | 35.77678 | -11.09013 | 35033 ft | 408 kts | 253° |
| 2026-04-23 01:52 | 35.76423 | -11.15829 | 35033 ft | 408 kts | 252° |
| 2026-04-23 01:52 | 35.75171 | -11.22646 | 35035 ft | 408 kts | 252° |
| 2026-04-23 01:53 | 35.73913 | -11.29461 | 35028 ft | 408 kts | 252° |
| 2026-04-23 01:53 | 35.72652 | -11.36283 | 35029 ft | 408 kts | 252° |
| 2026-04-23 01:54 | 35.71385 | -11.43101 | 35029 ft | 409 kts | 252° |
| 2026-04-23 01:54 | 35.70114 | -11.49922 | 35028 ft | 409 kts | 252° |
| 2026-04-23 01:55 | 35.68841 | -11.56742 | 35032 ft | 409 kts | 252° |
| 2026-04-23 01:55 | 35.67569 | -11.63557 | 35034 ft | 409 kts | 252° |
| 2026-04-23 01:56 | 35.66299 | -11.70329 | 35033 ft | 409 kts | 252° |
| 2026-04-23 01:56 | 35.65003 | -11.77137 | 35032 ft | 409 kts | 252° |
| 2026-04-23 01:57 | 35.63708 | -11.83939 | 35032 ft | 409 kts | 252° |
| 2026-04-23 01:57 | 35.62417 | -11.90747 | 35034 ft | 409 kts | 252° |
| 2026-04-23 01:58 | 35.61118 | -11.97558 | 35034 ft | 409 kts | 252° |
| 2026-04-23 01:58 | 35.59818 | -12.04366 | 35030 ft | 409 kts | 252° |
| 2026-04-23 01:59 | 35.58520 | -12.11174 | 35026 ft | 409 kts | 252° |
| 2026-04-23 01:59 | 35.57209 | -12.17978 | 35026 ft | 409 kts | 252° |
| 2026-04-23 02:00 | 35.55893 | -12.24788 | 35031 ft | 409 kts | 252° |
| 2026-04-23 02:00 | 35.53946 | -12.31260 | 35025 ft | 401 kts | 236° |
| 2026-04-23 02:01 | 35.50473 | -12.36550 | 35014 ft | 398 kts | 225° |
| 2026-04-23 02:01 | 35.46659 | -12.41414 | 35017 ft | 398 kts | 225° |
| 2026-04-23 02:02 | 35.42819 | -12.46306 | 35018 ft | 398 kts | 225° |
| 2026-04-23 02:02 | 35.38967 | -12.51200 | 35018 ft | 398 kts | 225° |
| 2026-04-23 02:03 | 35.35116 | -12.56074 | 35012 ft | 398 kts | 225° |
| 2026-04-23 02:03 | 35.31255 | -12.60946 | 35012 ft | 399 kts | 225° |
| 2026-04-23 02:04 | 35.27401 | -12.65830 | 35012 ft | 399 kts | 225° |
| 2026-04-23 02:04 | 35.23533 | -12.70717 | 35013 ft | 399 kts | 225° |
| 2026-04-23 02:05 | 35.19663 | -12.75600 | 35013 ft | 400 kts | 225° |
| 2026-04-23 02:05 | 35.15793 | -12.80474 | 35011 ft | 400 kts | 224° |
| 2026-04-23 02:06 | 35.11909 | -12.85352 | 35015 ft | 400 kts | 224° |
| 2026-04-23 02:06 | 35.08019 | -12.90234 | 35015 ft | 401 kts | 224° |
| 2026-04-23 02:07 | 35.04155 | -12.95085 | 35017 ft | 401 kts | 224° |
| 2026-04-23 02:07 | 35.00257 | -12.99973 | 35017 ft | 401 kts | 224° |
| 2026-04-23 02:08 | 34.96354 | -13.04862 | 35016 ft | 402 kts | 224° |
| 2026-04-23 02:08 | 34.92440 | -13.09734 | 35019 ft | 402 kts | 224° |
| 2026-04-23 02:09 | 34.88526 | -13.14601 | 35020 ft | 402 kts | 224° |
| 2026-04-23 02:09 | 34.85270 | -13.18649 | 35018 ft | 403 kts | 224° |
| 2026-04-23 02:10 | 34.81353 | -13.23523 | 35019 ft | 403 kts | 224° |
| 2026-04-23 02:10 | 34.77429 | -13.28397 | 35016 ft | 403 kts | 224° |
| 2026-04-23 02:11 | 34.73493 | -13.33268 | 35019 ft | 403 kts | 224° |
| 2026-04-23 02:11 | 34.69562 | -13.38133 | 35019 ft | 404 kts | 224° |
| 2026-04-23 02:12 | 34.65623 | -13.42999 | 35017 ft | 404 kts | 224° |
| 2026-04-23 02:12 | 34.61670 | -13.47863 | 35025 ft | 404 kts | 224° |
| 2026-04-23 02:13 | 34.57749 | -13.52702 | 35023 ft | 404 kts | 224° |
| 2026-04-23 02:13 | 34.53807 | -13.57564 | 35018 ft | 404 kts | 224° |
| 2026-04-23 02:14 | 34.49858 | -13.62423 | 35019 ft | 404 kts | 224° |
| 2026-04-23 02:14 | 34.45903 | -13.67273 | 35022 ft | 404 kts | 224° |
| 2026-04-23 02:15 | 34.39967 | -13.74535 | 35017 ft | 404 kts | 224° |
| 2026-04-23 02:16 | 34.36012 | -13.79375 | 35015 ft | 404 kts | 225° |
| 2026-04-23 02:16 | 34.32057 | -13.84214 | 35014 ft | 404 kts | 224° |
| 2026-04-23 02:17 | 34.28094 | -13.89039 | 35012 ft | 404 kts | 224° |
| 2026-04-23 02:17 | 34.24124 | -13.93863 | 35014 ft | 405 kts | 225° |
| 2026-04-23 02:18 | 34.20152 | -13.98692 | 35010 ft | 405 kts | 225° |
| 2026-04-23 02:18 | 34.16681 | -14.04032 | 35013 ft | 407 kts | 240° |
| 2026-04-23 02:19 | 34.14740 | -14.10486 | 35014 ft | 411 kts | 250° |
| 2026-04-23 02:19 | 34.13101 | -14.17056 | 35012 ft | 411 kts | 250° |
| 2026-04-23 02:20 | 34.11421 | -14.23661 | 35014 ft | 411 kts | 250° |
| 2026-04-23 02:20 | 34.09748 | -14.30265 | 35022 ft | 411 kts | 250° |
| 2026-04-23 02:21 | 34.08071 | -14.36863 | 35023 ft | 412 kts | 250° |
| 2026-04-23 02:21 | 34.06401 | -14.43463 | 35031 ft | 412 kts | 250° |
| 2026-04-23 02:22 | 34.04719 | -14.50057 | 35037 ft | 411 kts | 250° |
| 2026-04-23 02:22 | 34.03026 | -14.56661 | 35034 ft | 411 kts | 250° |
| 2026-04-23 02:23 | 34.01338 | -14.63241 | 35033 ft | 411 kts | 250° |
| 2026-04-23 02:23 | 33.99649 | -14.69811 | 35039 ft | 410 kts | 250° |
| 2026-04-23 02:24 | 33.97975 | -14.76335 | 35039 ft | 410 kts | 250° |
| 2026-04-23 02:24 | 33.96292 | -14.82894 | 35037 ft | 409 kts | 250° |
| 2026-04-23 02:25 | 33.94600 | -14.89442 | 34506 ft | 411 kts | 249° |
| 2026-04-23 02:25 | 33.93738 | -14.92760 | 33409 ft | 420 kts | 249° |
| 2026-04-23 02:25 | 33.92858 | -14.96141 | 32373 ft | 425 kts | 249° |
| 2026-04-23 02:25 | 33.91970 | -14.99554 | 31426 ft | 429 kts | 249° |
| 2026-04-23 02:26 | 33.91076 | -15.02988 | 30500 ft | 432 kts | 249° |
| 2026-04-23 02:26 | 33.90178 | -15.06455 | 29457 ft | 435 kts | 249° |
| 2026-04-23 02:26 | 33.89275 | -15.09943 | 28317 ft | 438 kts | 249° |
| 2026-04-23 02:26 | 33.88363 | -15.13452 | 27266 ft | 440 kts | 249° |
| 2026-04-23 02:27 | 33.87448 | -15.16959 | 26328 ft | 439 kts | 249° |
| 2026-04-23 02:27 | 33.86536 | -15.20442 | 25646 ft | 433 kts | 250° |
| 2026-04-23 02:27 | 33.85636 | -15.23879 | 24960 ft | 428 kts | 250° |
| 2026-04-23 02:27 | 33.84760 | -15.27222 | 24287 ft | 423 kts | 250° |
| 2026-04-23 02:28 | 33.83880 | -15.30578 | 23626 ft | 419 kts | 250° |
| 2026-04-23 02:28 | 33.83003 | -15.33912 | 22900 ft | 414 kts | 250° |
| 2026-04-23 02:28 | 33.82138 | -15.37190 | 22294 ft | 408 kts | 250° |
| 2026-04-23 02:28 | 33.81286 | -15.40415 | 21690 ft | 403 kts | 250° |
| 2026-04-23 02:29 | 33.80445 | -15.43605 | 21103 ft | 397 kts | 250° |
| 2026-04-23 02:29 | 33.79615 | -15.46749 | 20561 ft | 392 kts | 250° |
| 2026-04-23 02:29 | 33.78789 | -15.49865 | 20010 ft | 387 kts | 250° |
| 2026-04-23 02:29 | 33.77979 | -15.52922 | 19505 ft | 382 kts | 250° |
| 2026-04-23 02:30 | 33.77178 | -15.55945 | 18985 ft | 377 kts | 250° |
| 2026-04-23 02:30 | 33.76386 | -15.58929 | 18530 ft | 372 kts | 250° |
| 2026-04-23 02:30 | 33.75602 | -15.61876 | 18008 ft | 368 kts | 250° |
| 2026-04-23 02:30 | 33.74829 | -15.64785 | 17547 ft | 362 kts | 250° |
| 2026-04-23 02:31 | 33.74068 | -15.67648 | 17093 ft | 357 kts | 250° |
| 2026-04-23 02:31 | 33.73327 | -15.70439 | 16646 ft | 353 kts | 250° |
| 2026-04-23 02:31 | 33.72584 | -15.73231 | 16200 ft | 349 kts | 250° |
| 2026-04-23 02:31 | 33.71844 | -15.76002 | 15748 ft | 347 kts | 250° |
| 2026-04-23 02:32 | 33.71107 | -15.78754 | 15291 ft | 345 kts | 251° |
| 2026-04-23 02:32 | 33.70373 | -15.81492 | 14825 ft | 344 kts | 251° |
| 2026-04-23 02:32 | 33.69639 | -15.84223 | 14345 ft | 342 kts | 251° |
| 2026-04-23 02:32 | 33.68908 | -15.86941 | 13856 ft | 341 kts | 251° |
| 2026-04-23 02:33 | 33.68180 | -15.89647 | 13320 ft | 340 kts | 251° |
| 2026-04-23 02:33 | 33.67382 | -15.92302 | 12791 ft | 337 kts | 244° |
| 2026-04-23 02:33 | 33.66207 | -15.94723 | 12249 ft | 335 kts | 233° |
| 2026-04-23 02:33 | 33.64666 | -15.96814 | 11707 ft | 335 kts | 223° |
| 2026-04-23 02:34 | 33.62854 | -15.98561 | 11171 ft | 334 kts | 218° |
| 2026-04-23 02:34 | 33.61017 | -16.00244 | 10856 ft | 326 kts | 218° |
| 2026-04-23 02:34 | 33.59251 | -16.01863 | 10720 ft | 313 kts | 218° |
| 2026-04-23 02:34 | 33.57553 | -16.03424 | 10610 ft | 301 kts | 218° |
| 2026-04-23 02:35 | 33.55921 | -16.04925 | 10489 ft | 290 kts | 219° |
| 2026-04-23 02:35 | 33.54356 | -16.06364 | 10285 ft | 284 kts | 219° |
| 2026-04-23 02:35 | 33.52806 | -16.07786 | 10210 ft | 280 kts | 219° |
| 2026-04-23 02:35 | 33.51260 | -16.09203 | 10161 ft | 280 kts | 219° |
| 2026-04-23 02:36 | 33.49713 | -16.10621 | 10051 ft | 279 kts | 219° |
| 2026-04-23 02:36 | 33.48218 | -16.11992 | 9817 ft | 281 kts | 219° |
| 2026-04-23 02:36 | 33.46613 | -16.13466 | 9350 ft | 282 kts | 219° |
| 2026-04-23 02:36 | 33.45059 | -16.14893 | 8963 ft | 281 kts | 218° |
| 2026-04-23 02:37 | 33.43513 | -16.16307 | 8568 ft | 279 kts | 218° |
| 2026-04-23 02:37 | 33.41978 | -16.17709 | 8176 ft | 275 kts | 218° |
| 2026-04-23 02:37 | 33.40471 | -16.19085 | 7784 ft | 267 kts | 218° |
| 2026-04-23 02:37 | 33.39024 | -16.20408 | 7419 ft | 256 kts | 218° |
| 2026-04-23 02:38 | 33.37639 | -16.21673 | 7065 ft | 245 kts | 218° |
| 2026-04-23 02:38 | 33.36308 | -16.22887 | 6727 ft | 236 kts | 218° |
| 2026-04-23 02:38 | 33.35024 | -16.24057 | 6401 ft | 229 kts | 217° |
| 2026-04-23 02:38 | 33.33776 | -16.25196 | 6062 ft | 222 kts | 218° |
| 2026-04-23 02:39 | 33.32564 | -16.26301 | 5735 ft | 216 kts | 218° |
| 2026-04-23 02:39 | 33.31387 | -16.27375 | 5447 ft | 210 kts | 218° |
| 2026-04-23 02:39 | 33.30246 | -16.28418 | 5165 ft | 204 kts | 218° |
| 2026-04-23 02:39 | 33.29129 | -16.29438 | 4889 ft | 200 kts | 218° |
| 2026-04-23 02:40 | 33.28030 | -16.30440 | 4608 ft | 197 kts | 218° |
| 2026-04-23 02:40 | 33.26945 | -16.31430 | 4316 ft | 196 kts | 218° |
| 2026-04-23 02:40 | 33.25860 | -16.32421 | 4046 ft | 197 kts | 218° |
| 2026-04-23 02:40 | 33.24780 | -16.33405 | 3776 ft | 198 kts | 218° |
| 2026-04-23 02:41 | 33.23682 | -16.34403 | 3497 ft | 199 kts | 218° |
| 2026-04-23 02:41 | 33.22532 | -16.35330 | 3217 ft | 201 kts | 202° |
| 2026-04-23 02:41 | 33.21149 | -16.35561 | 2927 ft | 203 kts | 179° |
| 2026-04-23 02:41 | 33.19764 | -16.35504 | 2638 ft | 196 kts | 179° |
| 2026-04-23 02:42 | 33.18421 | -16.35447 | 2365 ft | 191 kts | 179° |
| 2026-04-23 02:42 | 33.17117 | -16.35390 | 2117 ft | 182 kts | 179° |
| 2026-04-23 02:42 | 33.15892 | -16.35337 | 1855 ft | 171 kts | 179° |
| 2026-04-23 02:42 | 33.14736 | -16.35289 | 1612 ft | 162 kts | 179° |
| 2026-04-23 02:43 | 33.13631 | -16.35245 | 1378 ft | 155 kts | 180° |
| 2026-04-23 02:43 | 33.12593 | -16.35204 | 1194 ft | 143 kts | 181° |
| 2026-04-23 02:43 | 33.11632 | -16.35165 | 983 ft | 135 kts | 180° |
| 2026-04-23 02:43 | 33.10700 | -16.35128 | 800 ft | 133 kts | 180° |
| 2026-04-23 02:44 | 33.09771 | -16.35092 | 604 ft | 135 kts | 180° |
| 2026-04-23 02:44 | 33.08825 | -16.35054 | 330 ft | 141 kts | 181° |
| 2026-04-23 02:44 | 33.07904 | -16.35012 | 248 ft | 121 kts | 180° |
| 2026-04-23 02:44 | 33.07192 | -16.34988 | 251 ft | 78 kts | 178° |
| 2026-04-23 02:45 | 33.06818 | -16.34981 | 250 ft | 33 kts | 179° |
| 2026-04-23 02:45 | 33.06615 | -16.34966 | 245 ft | 29 kts | 176° |
| 2026-04-23 02:45 | 33.06424 | -16.34957 | 245 ft | 26 kts | 178° |
| 2026-04-23 02:45 | 33.06240 | -16.34947 | 243 ft | 26 kts | 176° |
| 2026-04-23 02:46 | 33.06092 | -16.34866 | 246 ft | 24 kts | 135° |
| 2026-04-23 02:46 | 33.06002 | -16.34875 | 247 ft | 9 kts | 270° |
| 2026-04-23 02:46 | 33.06049 | -16.34944 | 248 ft | 14 kts | 342° |
| 2026-04-23 02:46 | 33.06143 | -16.34950 | 245 ft | 14 kts | 357° |
| 2026-04-23 02:47 | 33.06242 | -16.34953 | 243 ft | 14 kts | 359° |
| 2026-04-23 02:47 | 33.06345 | -16.34955 | 243 ft | 19 kts | 358° |
| 2026-04-23 02:47 | 33.06500 | -16.34961 | 246 ft | 23 kts | 357° |
| 2026-04-23 02:47 | 33.06676 | -16.34967 | 245 ft | 26 kts | 359° |
| 2026-04-23 02:48 | 33.06854 | -16.34977 | 251 ft | 23 kts | 356° |
| 2026-04-23 02:48 | 33.06960 | -16.34936 | 251 ft | 10 kts | 68° |
| 2026-04-23 02:48 | 33.06966 | -16.34844 | 249 ft | 11 kts | 93° |
| 2026-04-23 02:48 | 33.06969 | -16.34753 | 249 ft | 10 kts | 75° |
| 2026-04-23 02:49 | 33.07020 | -16.34711 | 249 ft | 9 kts | 5° |
| 2026-04-23 02:49 | 33.07077 | -16.34715 | 249 ft | 8 kts | 355° |
| 2026-04-23 02:49 | 33.07157 | -16.34720 | 249 ft | 9 kts | 358° |
| 2026-04-23 02:49 | 33.07195 | -16.34680 | 249 ft | 7 kts | 64° |
| 2026-04-23 02:50 | 33.07186 | -16.34640 | 249 ft | 4 kts | 157° |
| 2026-04-23 02:50 | 33.07176 | -16.34650 | 249 ft | 2 kts | 225° |
| 2026-04-23 02:50 | 33.07169 | -16.34658 | 249 ft | 2 kts | 225° |
| 2026-04-23 02:50 | 33.07159 | -16.34670 | 249 ft | 2 kts | 224° |
| 2026-04-23 02:51 | 33.07157 | -16.34673 | 249 ft | 0 kts | 224° |